Decoded Metar for DAOI (ECH-CHELIFF in ALGERIA) (IATA:QAS) | Meteo·Mobile Aviation Weather
aviador You're here:

DAOI Decoded Metar

ECH-CHELIFF in ALGERIA
Report Time2018-09-21 17:00:00
UTC Time2018-09-21 18:02:12
Flight Rules vfr VFR
Wind350° at 08 kt
W.Decomp.*RWY 26: 8.0 kt RCW
W.Rank350° ranks 27
Current wind is below 350° avg. (8.9)
Visibility9999 m
Phenomena:N/A
Clouds:Few 026 Hf
Expected CloudBase > 4,800 ft AGL from Temp-Dew spread
CeilingNone
Temp29°C (ISA +15)
Dew Point17°C (48% RH)
Heat Index29.4°C
AAT28.4°C
QNH1017 hPa
Density Alt2,306 ft
Elevation469 ft
Report Wrong Elevation
Raw Report
METAR DAOI 211700Z 35008KT 9999 FEW026 29/17 Q1017=

Extra information for DAOI:More info

Metar Taf Metar & Taf Last 4 Metars F.Rules Stats Wind Profile Meteogram Temp Stats Airport Information Weather charts Add Link Nearby VenuesMetar ALERT Operation Metar Decoded Social comments